Time;durP1;ratioP1;P1;durP2;ratioP2;P2;SDS_P1;SDS_P2;PMS_P1;PMS_P2;Temp;Humidity;BMP_temperature;BMP_pressure;BME280_temperature;BME280_humidity;BME280_pressure;Samples;Min_cycle;Max_cycle;Signal;HPM_P1;HPM_P2
2022/09/29 00:00:22;;;;;;;4.40;1.20;;;;;;;6.73;62.28;99194.97;4921594;28;97662;-67
2022/09/29 00:02:53;;;;;;;4.00;1.35;;;;;;;6.68;62.24;99200.34;4923043;28;97284;-68
2022/09/29 00:05:19;;;;;;;3.00;1.20;;;;;;;6.67;62.00;99204.06;4908473;28;97352;-65
2022/09/29 00:07:46;;;;;;;2.60;0.90;;;;;;;6.66;62.31;99207.84;4923203;28;97584;-69
2022/09/29 00:10:13;;;;;;;3.67;1.00;;;;;;;6.67;62.20;99205.97;4904310;28;97651;-68
2022/09/29 00:12:39;;;;;;;3.70;0.90;;;;;;;6.65;62.21;99206.25;4898122;28;97354;-68
2022/09/29 00:15:07;;;;;;;1.88;0.98;;;;;;;6.67;62.31;99211.31;4897753;28;97173;-66
2022/09/29 00:17:33;;;;;;;2.60;1.00;;;;;;;6.67;62.29;99211.31;4929586;28;109244;-66
2022/09/29 00:20:01;;;;;;;3.15;1.02;;;;;;;6.67;61.96;99211.31;4904049;28;98152;-68
2022/09/29 00:22:27;;;;;;;3.55;0.93;;;;;;;6.64;62.23;99215.31;4902727;28;97470;-68
2022/09/29 00:24:54;;;;;;;5.45;1.00;;;;;;;6.65;62.02;99222.31;4906448;28;97936;-68
2022/09/29 00:27:20;;;;;;;2.10;0.73;;;;;;;6.66;62.26;99215.88;4895715;28;99660;-65
2022/09/29 00:29:46;;;;;;;2.85;0.85;;;;;;;6.64;62.02;99213.47;4902928;28;97603;-69
2022/09/29 00:32:13;;;;;;;2.60;1.02;;;;;;;6.63;61.96;99216.41;4891323;28;97559;-68
2022/09/29 00:34:39;;;;;;;2.35;0.90;;;;;;;6.60;62.12;99215.09;4898892;28;97591;-66
2022/09/29 00:37:05;;;;;;;4.13;0.80;;;;;;;6.56;62.32;99222.06;4899019;28;100109;-66
2022/09/29 00:39:34;;;;;;;2.28;0.90;;;;;;;6.53;62.09;99221.81;4909534;28;97614;-68
2022/09/29 00:42:00;;;;;;;2.58;1.00;;;;;;;6.51;61.86;99216.69;4919341;28;97345;-66
2022/09/29 00:45:05;;;;;;;2.90;0.90;;;;;;;6.47;61.99;99217.50;4899751;28;97915;-66
2022/09/29 00:47:33;;;;;;;3.40;0.80;;;;;;;6.46;61.81;99219.38;4901592;28;97621;-69
2022/09/29 00:50:18;;;;;;;2.83;0.80;;;;;;;6.41;61.87;99223.97;4912226;28;97854;-68
2022/09/29 00:52:55;;;;;;;2.38;0.82;;;;;;;6.36;62.09;99224.75;4925817;28;97676;-69
2022/09/29 00:55:30;;;;;;;2.58;0.77;;;;;;;6.34;61.72;99232.25;4911713;28;97376;-65
2022/09/29 00:58:06;;;;;;;2.47;0.93;;;;;;;6.28;62.36;99228.75;4908404;28;98052;-66
2022/09/29 01:00:33;;;;;;;2.53;0.98;;;;;;;6.23;61.83;99236.81;4916941;28;117167;-69
2022/09/29 01:03:12;;;;;;;3.92;0.90;;;;;;;6.18;61.67;99233.34;4918050;28;99346;-68
2022/09/29 01:05:50;;;;;;;2.53;0.73;;;;;;;6.16;62.19;99228.25;4900376;28;97631;-66
2022/09/29 01:08:36;;;;;;;2.78;1.00;;;;;;;6.12;62.14;99227.16;4917773;28;99615;-66
2022/09/29 01:11:03;;;;;;;2.17;0.70;;;;;;;6.06;61.74;99222.91;4903676;28;97874;-68
2022/09/29 01:13:29;;;;;;;2.78;0.95;;;;;;;6.04;61.88;99233.06;4906652;28;97741;-66
2022/09/29 01:15:56;;;;;;;2.63;0.80;;;;;;;5.99;61.92;99233.84;4906163;28;97829;-66
2022/09/29 01:18:22;;;;;;;1.52;0.80;;;;;;;5.96;62.02;99228.25;4912894;28;97597;-68
2022/09/29 01:21:10;;;;;;;2.33;0.85;;;;;;;5.93;61.85;99226.88;4934065;28;102617;-68
2022/09/29 01:24:04;;;;;;;4.47;1.05;;;;;;;5.93;62.04;99239.47;4941551;28;98301;-68
2022/09/29 01:27:15;;;;;;;4.50;0.65;;;;;;;5.90;62.06;99235.44;4919328;28;97471;-68
2022/09/29 01:30:18;;;;;;;2.20;0.70;;;;;;;5.90;62.37;99232.75;4935055;28;99510;-66
2022/09/29 01:33:16;;;;;;;2.50;0.68;;;;;;;5.88;62.00;99234.88;4906142;28;98186;-66
2022/09/29 01:36:03;;;;;;;1.70;0.60;;;;;;;5.87;61.89;99233.28;4942144;28;98978;-68
2022/09/29 01:39:14;;;;;;;2.05;0.75;;;;;;;5.87;61.86;99241.31;4914169;28;98045;-66
2022/09/29 01:41:50;;;;;;;3.58;0.77;;;;;;;5.88;62.34;99237.56;4930454;28;97990;-68
2022/09/29 01:44:41;;;;;;;2.08;0.80;;;;;;;5.90;61.76;99240.78;4936933;28;98217;-66
2022/09/29 01:47:30;;;;;;;2.00;0.73;;;;;;;5.89;62.21;99231.97;4907731;28;97240;-68
2022/09/29 01:50:22;;;;;;;2.10;0.90;;;;;;;5.90;61.80;99236.22;4947501;28;97799;-68
2022/09/29 01:52:53;;;;;;;1.98;0.60;;;;;;;5.87;62.46;99236.75;4942505;28;97979;-68
2022/09/29 01:55:22;;;;;;;4.50;0.85;;;;;;;5.90;62.36;99230.09;4897780;28;97641;-68
2022/09/29 01:58:16;;;;;;;4.53;1.00;;;;;;;5.87;62.01;99231.41;4917323;28;97740;-66
2022/09/29 02:00:55;;;;;;;1.38;0.57;;;;;;;5.87;61.97;99233.28;4929805;28;97994;-67
2022/09/29 02:03:31;;;;;;;1.90;0.60;;;;;;;5.87;62.36;99233.28;4905376;28;97642;-68
2022/09/29 02:06:02;;;;;;;2.58;0.70;;;;;;;5.87;62.47;99231.41;4914968;28;96994;-66
2022/09/29 02:08:35;;;;;;;1.85;0.70;;;;;;;5.87;62.39;99228.72;4937690;28;97417;-66
2022/09/29 02:11:05;;;;;;;2.67;0.70;;;;;;;5.89;62.23;99233.81;4923046;28;97685;-68
2022/09/29 02:13:39;;;;;;;1.75;0.60;;;;;;;5.88;62.64;99238.34;4944018;28;99676;-68
2022/09/29 02:16:07;;;;;;;2.53;0.82;;;;;;;5.88;62.55;99232.22;4917263;28;97898;-66
2022/09/29 02:18:40;;;;;;;2.53;0.77;;;;;;;5.88;62.32;99234.88;4923358;28;99133;-65
2022/09/29 02:21:06;;;;;;;1.67;0.63;;;;;;;5.87;62.66;99244.78;4925505;28;97968;-66
2022/09/29 02:23:35;;;;;;;2.15;0.70;;;;;;;5.87;62.36;99231.41;4917006;28;97248;-68
2022/09/29 02:26:02;;;;;;;3.42;0.70;;;;;;;5.87;62.76;99239.44;4935057;28;97524;-69
2022/09/29 02:28:28;;;;;;;4.53;0.90;;;;;;;5.88;62.47;99234.88;4920435;28;99152;-67
2022/09/29 02:30:54;;;;;;;3.30;0.68;;;;;;;5.88;62.55;99248.25;4911866;28;116588;-66
2022/09/29 02:33:24;;;;;;;1.70;0.60;;;;;;;5.89;62.29;99244.50;4916696;28;119975;-68
2022/09/29 02:36:32;;;;;;;1.90;0.65;;;;;;;5.89;62.14;99249.84;4916481;28;97834;-66
2022/09/29 02:39:10;;;;;;;2.78;1.00;;;;;;;5.90;62.26;99249.59;4944082;28;97363;-68
2022/09/29 02:42:12;;;;;;;2.17;0.70;;;;;;;5.89;62.38;99253.34;4948577;28;97607;-68
2022/09/29 02:45:18;;;;;;;2.60;0.60;;;;;;;5.89;62.48;99255.19;4928433;28;97833;-68
2022/09/29 02:48:14;;;;;;;2.40;0.60;;;;;;;5.90;62.17;99257.63;4956727;28;98076;-68
2022/09/29 02:51:16;;;;;;;2.25;0.73;;;;;;;5.93;62.63;99261.66;4925690;28;97708;-68
2022/09/29 02:54:09;;;;;;;2.70;0.85;;;;;;;5.98;62.21;99261.69;4940888;28;97990;-65
2022/09/29 02:57:11;;;;;;;1.75;0.60;;;;;;;6.00;62.74;99264.88;4925582;28;99848;-68
2022/09/29 02:59:42;;;;;;;2.15;0.80;;;;;;;6.02;62.72;99262.75;4919802;28;98173;-69
2022/09/29 03:02:08;;;;;;;2.17;0.57;;;;;;;6.04;63.01;99265.97;4913606;28;97703;-66
2022/09/29 03:04:36;;;;;;;3.38;0.85;;;;;;;6.06;62.64;99279.88;4910787;28;98910;-67
2022/09/29 03:07:02;;;;;;;2.72;0.77;;;;;;;6.05;62.93;99272.94;4920165;28;99159;-69
2022/09/29 03:09:28;;;;;;;2.75;0.77;;;;;;;6.09;62.96;99279.38;4933003;28;97856;-66
2022/09/29 03:11:55;;;;;;;2.17;0.98;;;;;;;6.12;63.07;99281.47;4922589;28;97826;-66
2022/09/29 03:14:21;;;;;;;3.95;0.70;;;;;;;6.17;63.27;99279.88;4929595;28;97953;-68
2022/09/29 03:16:47;;;;;;;2.47;0.70;;;;;;;6.19;63.06;99278.56;4917346;28;97885;-69
2022/09/29 03:19:14;;;;;;;3.38;0.77;;;;;;;6.24;63.16;99277.75;4926121;28;97975;-69
2022/09/29 03:21:40;;;;;;;3.67;0.70;;;;;;;6.32;63.23;99275.34;4939242;28;97461;-69
2022/09/29 03:24:07;;;;;;;3.17;0.50;;;;;;;6.41;63.23;99280.97;4926125;28;97932;-68
2022/09/29 03:26:33;;;;;;;2.80;0.65;;;;;;;6.45;63.23;99284.72;4909926;28;97944;-66
2022/09/29 03:29:00;;;;;;;2.05;0.70;;;;;;;6.51;63.04;99278.28;4923692;28;98293;-66
2022/09/29 03:31:26;;;;;;;2.17;0.80;;;;;;;6.57;63.01;99277.22;4919299;28;97537;-67
2022/09/29 03:33:52;;;;;;;1.65;0.57;;;;;;;6.61;62.90;99278.28;4904006;28;96889;-66
2022/09/29 03:36:19;;;;;;;3.00;0.60;;;;;;;6.64;62.83;99275.06;4930170;28;99530;-68
2022/09/29 03:38:46;;;;;;;2.63;0.73;;;;;;;6.69;63.01;99273.47;4939319;28;97635;-66
2022/09/29 03:41:12;;;;;;;4.68;0.80;;;;;;;6.72;62.86;99280.94;4913446;28;97495;-66
2022/09/29 03:43:38;;;;;;;2.05;0.50;;;;;;;6.72;62.87;99278.25;4923002;28;97431;-65
2022/09/29 03:46:05;;;;;;;2.92;0.70;;;;;;;6.72;63.48;99278.25;4908721;28;97879;-66
2022/09/29 03:48:33;;;;;;;2.22;0.60;;;;;;;6.72;63.02;99272.91;4919515;28;97732;-69
2022/09/29 03:51:00;;;;;;;2.03;0.77;;;;;;;6.71;63.18;99272.09;4919637;28;97657;-66
2022/09/29 03:53:27;;;;;;;2.38;0.70;;;;;;;6.72;62.95;99279.06;4923571;28;97616;-69
2022/09/29 03:55:53;;;;;;;2.63;0.70;;;;;;;6.71;63.92;99279.31;4897232;28;97861;-69
2022/09/29 03:58:19;;;;;;;2.05;0.57;;;;;;;6.72;63.40;99283.59;4927517;28;99703;-66
2022/09/29 04:00:48;;;;;;;3.42;1.00;;;;;;;6.71;63.36;99280.13;4906328;28;97449;-68
2022/09/29 04:03:15;;;;;;;1.70;0.63;;;;;;;6.72;63.19;99283.59;4940621;28;98061;-66
2022/09/29 04:05:41;;;;;;;2.80;0.57;;;;;;;6.74;63.28;99284.16;4918251;28;97996;-66
2022/09/29 04:08:07;;;;;;;4.43;0.80;;;;;;;6.76;63.58;99285.50;4918421;28;97735;-68
2022/09/29 04:10:35;;;;;;;3.05;0.60;;;;;;;6.81;63.36;99290.84;4933140;28;111717;-66
2022/09/29 04:13:02;;;;;;;3.03;0.93;;;;;;;6.83;63.22;99293.22;4917855;28;98077;-69
2022/09/29 04:15:28;;;;;;;3.85;1.38;;;;;;;6.86;63.22;99288.13;4912537;28;97973;-67
2022/09/29 04:17:55;;;;;;;4.15;1.65;;;;;;;6.91;63.31;99289.19;4904509;28;97782;-68
2022/09/29 04:20:21;;;;;;;2.67;1.08;;;;;;;6.92;63.24;99288.13;4924170;28;97173;-68
2022/09/29 04:22:47;;;;;;;2.85;1.00;;;;;;;6.91;63.30;99292.69;4921157;28;97613;-69
2022/09/29 04:25:14;;;;;;;3.15;1.30;;;;;;;6.92;63.31;99297.00;4911685;28;111282;-66
2022/09/29 04:27:40;;;;;;;3.63;1.50;;;;;;;6.92;63.29;99288.94;4898120;28;97998;-66
2022/09/29 04:30:08;;;;;;;3.13;1.20;;;;;;;6.93;63.16;99287.88;4918564;28;98022;-66
2022/09/29 04:32:36;;;;;;;5.07;1.48;;;;;;;6.91;63.18;99292.69;4929253;28;97877;-69
2022/09/29 04:35:04;;;;;;;5.00;1.23;;;;;;;6.92;63.25;99296.16;4913810;28;97753;-66
2022/09/29 04:37:30;;;;;;;3.80;0.90;;;;;;;6.92;63.65;99299.66;4911823;28;100971;-66
2022/09/29 04:39:58;;;;;;;2.15;0.85;;;;;;;6.95;63.09;99295.63;4906292;28;98189;-69
2022/09/29 04:42:24;;;;;;;2.33;0.90;;;;;;;6.98;63.25;99298.56;4905795;28;97477;-66
2022/09/29 04:44:51;;;;;;;2.13;0.70;;;;;;;6.98;63.41;99303.94;4938461;28;97583;-68
2022/09/29 04:47:17;;;;;;;2.22;0.65;;;;;;;6.97;63.73;99310.38;4933415;28;99541;-68
2022/09/29 04:49:43;;;;;;;2.80;0.60;;;;;;;6.96;63.29;99313.31;4922893;28;98125;-66
2022/09/29 04:52:13;;;;;;;2.75;0.57;;;;;;;6.94;63.12;99310.09;4925441;28;97819;-69
2022/09/29 04:54:40;;;;;;;2.08;0.60;;;;;;;6.93;63.55;99311.97;4926295;28;97543;-66
2022/09/29 04:57:06;;;;;;;3.13;0.60;;;;;;;6.91;63.23;99313.31;4898078;28;97789;-66
2022/09/29 04:59:33;;;;;;;2.38;0.70;;;;;;;6.88;63.44;99325.41;4916510;28;97957;-69
2022/09/29 05:02:00;;;;;;;2.90;0.50;;;;;;;6.87;63.21;99324.56;4920213;28;97419;-66
2022/09/29 05:04:26;;;;;;;2.58;0.70;;;;;;;6.87;63.38;99321.09;4917721;28;97798;-69
2022/09/29 05:06:52;;;;;;;1.35;0.52;;;;;;;6.84;63.35;99322.44;4901410;28;98039;-66
2022/09/29 05:09:18;;;;;;;2.53;0.65;;;;;;;6.81;63.42;99322.19;4917251;28;97278;-66
2022/09/29 05:11:44;;;;;;;1.42;0.50;;;;;;;6.79;63.08;99327.00;4901191;28;97433;-66
2022/09/29 05:14:11;;;;;;;1.75;0.85;;;;;;;6.76;63.09;99325.69;4919439;28;115121;-66
2022/09/29 05:16:39;;;;;;;3.42;1.30;;;;;;;6.73;63.50;99330.78;4920571;28;98256;-66
2022/09/29 05:19:06;;;;;;;2.22;0.70;;;;;;;6.72;63.64;99327.28;4905105;28;97455;-66
2022/09/29 05:21:36;;;;;;;2.33;0.60;;;;;;;6.73;63.31;99323.53;4923830;28;97900;-68
2022/09/29 05:24:02;;;;;;;3.35;0.73;;;;;;;6.72;63.30;99326.47;4923782;28;98137;-69
2022/09/29 05:26:28;;;;;;;3.15;0.75;;;;;;;6.72;63.24;99332.66;4905511;28;97842;-69
2022/09/29 05:28:55;;;;;;;4.00;0.98;;;;;;;6.74;63.32;99335.84;4904929;28;97767;-68
2022/09/29 05:31:21;;;;;;;2.28;0.60;;;;;;;6.74;63.36;99322.44;4914077;28;97583;-66
2022/09/29 05:33:47;;;;;;;4.43;1.05;;;;;;;6.78;63.14;99323.50;4922615;28;97588;-66
2022/09/29 05:36:14;;;;;;;2.03;0.70;;;;;;;6.82;63.04;99332.63;4907159;28;97896;-66
2022/09/29 05:38:40;;;;;;;4.60;0.77;;;;;;;6.84;63.38;99330.50;4936023;28;98509;-69
2022/09/29 05:41:09;;;;;;;2.22;0.80;;;;;;;6.88;63.33;99338.78;4933696;28;97897;-68
2022/09/29 05:43:36;;;;;;;1.75;0.70;;;;;;;6.90;63.01;99336.63;4916835;28;97787;-69
2022/09/29 05:46:03;;;;;;;1.77;0.73;;;;;;;6.92;63.04;99334.50;4915676;28;97780;-66
2022/09/29 05:48:30;;;;;;;3.60;0.68;;;;;;;6.92;63.09;99334.50;4918707;28;97468;-69
2022/09/29 05:51:09;;;;;;;1.98;0.70;;;;;;;6.93;62.93;99330.75;4906344;28;97952;-69
2022/09/29 05:53:37;;;;;;;1.67;0.60;;;;;;;6.96;63.07;99332.09;4908482;28;97618;-70
2022/09/29 05:56:09;;;;;;;2.17;0.55;;;;;;;6.96;62.77;99334.75;4905631;28;97656;-69
2022/09/29 05:58:40;;;;;;;2.05;0.73;;;;;;;6.94;63.15;99324.28;4921540;28;97508;-69
2022/09/29 06:01:14;;;;;;;1.55;0.40;;;;;;;6.94;62.75;99329.66;4903494;28;97862;-69
2022/09/29 06:03:41;;;;;;;2.13;0.50;;;;;;;6.94;62.92;99332.34;4918062;28;97769;-69
2022/09/29 06:06:18;;;;;;;2.10;0.55;;;;;;;6.97;62.89;99336.34;4900961;28;98590;-69
2022/09/29 06:08:47;;;;;;;2.67;0.60;;;;;;;6.99;62.50;99337.69;4919941;28;99381;-69
2022/09/29 06:11:20;;;;;;;2.25;1.02;;;;;;;7.04;62.91;99340.38;4915882;28;98489;-69
2022/09/29 06:13:49;;;;;;;2.58;1.50;;;;;;;7.11;62.83;99340.06;4925364;28;97640;-69
2022/09/29 06:16:17;;;;;;;4.40;1.40;;;;;;;7.17;62.77;99340.88;4912807;28;97797;-69
2022/09/29 06:18:45;;;;;;;3.55;1.15;;;;;;;7.21;62.49;99340.06;4901283;28;97547;-69
2022/09/29 06:21:23;;;;;;;4.53;1.30;;;;;;;7.27;62.20;99335.47;4936894;28;97601;-69
2022/09/29 06:23:50;;;;;;;2.42;0.80;;;;;;;7.29;62.16;99344.84;4926361;28;99554;-66
2022/09/29 06:26:18;;;;;;;2.42;0.77;;;;;;;7.33;62.69;99343.25;4918274;28;99014;-66
2022/09/29 06:28:44;;;;;;;2.20;0.85;;;;;;;7.36;62.53;99353.41;4939830;28;97986;-66
2022/09/29 06:31:13;;;;;;;2.72;0.80;;;;;;;7.38;62.65;99347.78;4907632;28;97746;-66
2022/09/29 06:33:40;;;;;;;2.92;0.80;;;;;;;7.44;62.61;99352.06;4934151;28;99538;-66
2022/09/29 06:39:22;;;;;;;3.07;0.77;;;;;;;7.60;62.48;99344.75;4959203;28;98210;-69
2022/09/29 06:41:54;;;;;;;1.25;0.60;;;;;;;7.71;62.00;99346.31;4941642;28;97718;-69
2022/09/29 06:44:26;;;;;;;3.53;0.75;;;;;;;7.86;61.83;99348.94;4929067;28;97467;-69
2022/09/29 06:46:55;;;;;;;2.53;0.87;;;;;;;8.07;62.01;99352.31;4924931;28;99691;-69
2022/09/29 06:49:23;;;;;;;2.35;0.77;;;;;;;8.25;61.54;99352.72;4923212;28;98068;-69
2022/09/29 06:51:49;;;;;;;2.00;0.80;;;;;;;8.40;61.15;99355.34;4931622;28;97450;-69
2022/09/29 06:54:23;;;;;;;1.92;0.60;;;;;;;8.50;61.79;99347.22;4905427;28;97671;-69
2022/09/29 06:56:51;;;;;;;2.05;0.70;;;;;;;8.60;61.36;99347.13;4924533;28;98241;-69
2022/09/29 06:59:20;;;;;;;2.10;0.73;;;;;;;8.63;61.66;99344.97;4914814;28;98071;-69
2022/09/29 07:01:48;;;;;;;2.38;0.63;;;;;;;8.66;61.17;99344.41;4924340;28;97492;-69
2022/09/29 07:04:15;;;;;;;2.13;0.80;;;;;;;8.72;61.84;99351.34;4902429;28;97682;-69
2022/09/29 07:06:44;;;;;;;2.55;0.75;;;;;;;8.87;61.90;99350.41;4902940;28;97976;-69
2022/09/29 07:09:16;;;;;;;1.73;0.65;;;;;;;9.02;61.10;99355.66;4900291;28;98005;-69
2022/09/29 07:11:46;;;;;;;1.92;0.85;;;;;;;9.13;61.29;99350.97;4896564;28;97969;-69
2022/09/29 07:14:18;;;;;;;2.83;1.70;;;;;;;9.17;61.21;99338.56;4921532;28;97856;-69
2022/09/29 07:16:47;;;;;;;3.20;1.35;;;;;;;9.17;61.55;99346.63;4932513;28;97930;-66
2022/09/29 07:19:13;;;;;;;1.85;0.80;;;;;;;9.24;61.31;99349.78;4920188;28;97561;-66
2022/09/29 07:21:39;;;;;;;2.60;0.77;;;;;;;9.32;61.76;99338.41;4899757;28;97445;-66
2022/09/29 07:24:06;;;;;;;3.20;1.27;;;;;;;9.44;61.28;99346.06;4921938;28;97842;-66
2022/09/29 07:26:33;;;;;;;2.42;0.88;;;;;;;9.55;60.83;99347.56;4898202;28;98159;-66
2022/09/29 07:29:00;;;;;;;2.40;1.27;;;;;;;9.73;60.81;99346.00;4889960;28;97504;-66
2022/09/29 07:31:27;;;;;;;3.17;1.20;;;;;;;9.91;61.22;99344.44;4914312;28;97724;-66
2022/09/29 07:33:53;;;;;;;2.05;0.90;;;;;;;9.99;61.29;99358.03;4910000;28;97619;-66
2022/09/29 07:36:25;;;;;;;2.58;0.90;;;;;;;10.09;61.08;99351.69;4918293;28;99157;-67
2022/09/29 07:38:52;;;;;;;2.42;1.00;;;;;;;10.22;60.84;99351.00;4902206;28;98183;-66
2022/09/29 07:41:21;;;;;;;6.53;1.40;;;;;;;10.36;60.61;99350.28;4894038;28;97596;-66
2022/09/29 07:43:49;;;;;;;1.98;1.02;;;;;;;10.48;60.56;99347.94;4902132;28;97761;-68
2022/09/29 07:46:16;;;;;;;2.08;0.80;;;;;;;10.61;60.35;99347.19;4915399;28;97806;-66
2022/09/29 07:48:42;;;;;;;1.88;0.70;;;;;;;10.75;60.19;99344.53;4904029;28;97573;-66
2022/09/29 07:51:11;;;;;;;2.22;1.00;;;;;;;10.91;59.95;99348.56;4917575;28;98231;-66
2022/09/29 07:53:38;;;;;;;3.40;1.30;;;;;;;11.09;60.17;99346.91;4931866;28;97623;-66
2022/09/29 07:56:14;;;;;;;3.75;0.80;;;;;;;11.28;59.82;99355.72;4908182;28;97822;-70
2022/09/29 07:58:41;;;;;;;1.90;0.70;;;;;;;11.48;59.39;99359.94;4916923;28;97623;-67
2022/09/29 08:01:11;;;;;;;2.40;0.88;;;;;;;11.71;59.26;99354.63;4897348;28;100815;-69
2022/09/29 08:03:38;;;;;;;2.60;1.02;;;;;;;11.96;58.63;99361.44;4895213;28;98408;-66
2022/09/29 08:06:07;;;;;;;3.92;1.15;;;;;;;12.26;58.32;99357.25;4899600;28;97861;-69
2022/09/29 08:08:41;;;;;;;3.08;1.08;;;;;;;12.52;58.35;99362.88;4910083;28;97639;-69
2022/09/29 08:11:10;;;;;;;2.28;0.90;;;;;;;12.82;57.71;99357.84;4902699;28;97819;-66
2022/09/29 08:13:37;;;;;;;2.22;1.00;;;;;;;13.16;57.47;99363.44;4885212;28;102382;-66
2022/09/29 08:16:06;;;;;;;2.42;0.90;;;;;;;13.73;56.69;99362.75;4904281;28;98515;-67
2022/09/29 08:18:33;;;;;;;3.15;1.10;;;;;;;14.27;56.04;99366.03;4929496;28;98972;-67
2022/09/29 08:20:59;;;;;;;2.45;0.93;;;;;;;17.15;50.99;99367.81;4903631;28;97932;-67
2022/09/29 08:23:26;;;;;;;1.50;0.95;;;;;;;21.32;45.11;99370.72;4923914;28;97907;-67
2022/09/29 08:26:04;;;;;;;1.67;0.88;;;;;;;23.94;43.12;99395.56;4916607;28;98223;-67
2022/09/29 08:28:31;;;;;;;2.45;1.02;;;;;;;27.82;37.73;99419.78;4928591;28;98223;-67
2022/09/29 08:31:03;;;;;;;2.00;0.98;;;;;;;30.54;36.06;99414.78;4921916;28;97888;-68
2022/09/29 08:33:30;;;;;;;1.60;0.70;;;;;;;32.58;33.05;99431.41;4931113;28;98237;-68
2022/09/29 08:35:57;;;;;;;1.70;0.95;;;;;;;34.32;31.48;99422.31;4904194;28;97945;-68
2022/09/29 08:38:24;;;;;;;1.70;1.00;;;;;;;35.72;30.42;99428.94;4896848;28;97499;-68
2022/09/29 08:40:51;;;;;;;1.38;0.73;;;;;;;36.61;29.95;99419.50;4900121;28;97595;-68
2022/09/29 08:43:37;;;;;;;2.85;1.83;;;;;;;36.06;31.90;99401.91;4936753;28;97659;-68
2022/09/29 08:46:34;;;;;;;1.83;0.60;;;;;;;34.56;33.56;99389.09;4930374;28;98245;-68
2022/09/29 08:49:11;;;;;;;1.90;0.90;;;;;;;33.66;33.59;99397.00;4945170;28;97958;-70
2022/09/29 08:51:47;;;;;;;1.52;0.60;;;;;;;32.62;34.92;99388.28;4904089;28;97895;-71
2022/09/29 08:54:38;;;;;;;1.45;0.63;;;;;;;31.70;36.21;99385.97;4918778;28;98217;-68
2022/09/29 08:57:05;;;;;;;1.95;0.70;;;;;;;30.99;35.64;99386.44;4931125;28;99991;-69
2022/09/29 08:59:31;;;;;;;1.75;0.60;;;;;;;30.29;36.10;99383.91;4915523;28;97624;-69
2022/09/29 09:02:29;;;;;;;1.70;0.68;;;;;;;29.71;37.98;99377.81;4899956;28;97887;-69
2022/09/29 09:05:36;;;;;;;1.17;0.52;;;;;;;29.09;38.66;99379.97;4913540;28;99635;-68
2022/09/29 09:08:27;;;;;;;2.45;0.77;;;;;;;28.41;37.86;99383.59;4944277;28;98007;-69
2022/09/29 09:11:19;;;;;;;1.65;0.75;;;;;;;27.77;38.48;99373.19;4927633;28;98072;-68
2022/09/29 09:14:17;;;;;;;1.08;0.50;;;;;;;27.05;40.23;99373.69;4947576;28;97742;-68
2022/09/29 09:16:57;;;;;;;1.20;0.47;;;;;;;26.38;39.86;99383.06;4943755;28;98152;-70
2022/09/29 09:19:26;;;;;;;1.20;0.50;;;;;;;25.88;39.33;99389.47;4939968;28;97710;-68
2022/09/29 09:22:09;;;;;;;2.15;1.10;;;;;;;25.48;40.75;99387.13;4948553;28;99000;-68
2022/09/29 09:24:55;;;;;;;1.75;0.50;;;;;;;25.07;41.01;99384.66;4934472;28;98154;-70
2022/09/29 09:27:32;;;;;;;0.90;0.50;;;;;;;24.78;40.69;99376.31;4929621;28;101515;-67
2022/09/29 09:30:05;;;;;;;2.65;0.50;;;;;;;24.33;41.23;99378.50;4894139;28;109675;-70
2022/09/29 09:32:36;;;;;;;2.78;0.68;;;;;;;23.99;40.69;99383.41;4905965;28;98425;-67
2022/09/29 09:35:31;;;;;;;2.37;0.80;;;;;;;23.67;41.71;99383.19;4944982;28;97466;-70
2022/09/29 09:38:12;;;;;;;1.55;0.63;;;;;;;23.54;41.57;99385.41;4952863;28;97713;-66
2022/09/29 09:40:42;;;;;;;3.20;0.90;;;;;;;23.54;40.87;99382.66;4928022;28;97620;-67
2022/09/29 09:43:21;;;;;;;2.22;0.88;;;;;;;23.47;41.15;99383.38;4924496;28;98249;-70
2022/09/29 09:46:03;;;;;;;1.75;0.55;;;;;;;23.42;40.99;99378.25;4929207;28;97318;-70
2022/09/29 09:48:42;;;;;;;0.98;0.40;;;;;;;23.51;41.28;99383.41;4914532;28;97961;-69
2022/09/29 09:51:44;;;;;;;2.25;0.60;;;;;;;23.55;41.07;99386.97;4922707;28;97802;-67
2022/09/29 09:54:28;;;;;;;1.70;0.57;;;;;;;23.70;40.79;99376.91;4926138;28;97738;-67
2022/09/29 09:57:18;;;;;;;2.40;0.50;;;;;;;23.61;41.35;99376.41;4918109;28;98455;-67
2022/09/29 10:00:22;;;;;;;0.98;0.45;;;;;;;23.53;41.10;99375.56;4963739;28;99598;-67
2022/09/29 10:02:54;;;;;;;1.05;0.40;;;;;;;23.46;40.61;99375.50;4937777;28;100953;-69
2022/09/29 10:05:28;;;;;;;0.93;0.40;;;;;;;23.05;40.79;99377.47;4895840;28;98595;-67
2022/09/29 10:07:54;;;;;;;1.10;0.40;;;;;;;23.11;40.44;99378.69;4908607;28;97603;-67
2022/09/29 10:10:24;;;;;;;1.27;0.50;;;;;;;22.38;41.19;99376.28;4916702;28;98040;-70
2022/09/29 10:12:56;;;;;;;0.70;0.30;;;;;;;23.43;39.67;99371.56;4914659;28;97705;-67
2022/09/29 10:15:32;;;;;;;2.45;0.40;;;;;;;24.13;39.21;99369.75;4937536;28;98155;-69
2022/09/29 10:18:18;;;;;;;0.80;0.30;;;;;;;25.00;38.43;99376.41;4910891;28;98272;-67
2022/09/29 10:20:45;;;;;;;3.10;0.50;;;;;;;25.57;37.33;99379.22;4903732;28;97762;-67
2022/09/29 10:23:33;;;;;;;1.10;0.50;;;;;;;26.10;37.48;99378.41;4935699;28;98131;-70
2022/09/29 10:26:47;;;;;;;1.05;0.57;;;;;;;25.59;37.46;99379.63;4932605;28;97786;-67
2022/09/29 10:29:37;;;;;;;1.20;0.40;;;;;;;24.95;38.88;99383.06;4968470;28;97559;-67
2022/09/29 10:32:23;;;;;;;1.77;0.57;;;;;;;26.06;37.12;99380.41;4932769;28;98221;-69
2022/09/29 10:34:53;;;;;;;1.05;0.50;;;;;;;26.37;36.10;99393.31;4947627;28;97944;-69
2022/09/29 10:37:38;;;;;;;1.20;0.30;;;;;;;26.72;36.34;99393.59;4905338;28;98751;-69
2022/09/29 10:40:10;;;;;;;1.50;0.40;;;;;;;25.28;38.43;99395.75;4925014;28;97911;-69
2022/09/29 10:42:39;;;;;;;1.52;0.40;;;;;;;24.98;37.79;99393.31;4965408;28;98120;-69
2022/09/29 10:45:15;;;;;;;0.88;0.40;;;;;;;25.36;37.72;99389.06;4935871;28;98073;-67
2022/09/29 10:47:46;;;;;;;2.13;0.50;;;;;;;26.52;35.56;99404.34;4951955;28;97781;-67
2022/09/29 10:50:23;;;;;;;1.50;0.40;;;;;;;25.37;37.67;99400.88;4915707;28;97497;-67
2022/09/29 10:52:52;;;;;;;1.80;0.50;;;;;;;24.62;38.10;99398.69;4928294;28;108192;-69
2022/09/29 10:55:27;;;;;;;1.20;0.38;;;;;;;23.58;39.20;99405.47;4947673;28;97849;-69
2022/09/29 10:57:57;;;;;;;1.10;0.30;;;;;;;22.82;39.60;99405.06;4920826;28;97632;-69
2022/09/29 11:00:37;;;;;;;1.55;0.47;;;;;;;22.11;40.39;99400.19;4918020;28;97625;-69
2022/09/29 11:03:27;;;;;;;0.70;0.20;;;;;;;21.61;40.48;99404.91;4928448;28;98172;-67
2022/09/29 11:06:12;;;;;;;0.82;0.20;;;;;;;21.49;40.84;99408.63;4934932;28;97708;-68
2022/09/29 11:09:00;;;;;;;0.93;0.20;;;;;;;20.95;41.28;99419.78;4898753;28;99215;-68
2022/09/29 11:11:29;;;;;;;1.48;0.30;;;;;;;20.54;41.10;99419.31;4939120;28;98019;-66
2022/09/29 11:13:56;;;;;;;1.25;0.20;;;;;;;22.72;38.15;99418.31;4934624;28;97718;-69
2022/09/29 11:16:28;;;;;;;0.47;0.20;;;;;;;25.07;35.67;99409.47;4899323;28;99758;-67
2022/09/29 11:19:07;;;;;;;1.10;0.40;;;;;;;26.76;33.52;99413.72;4917820;28;97565;-70
2022/09/29 11:21:52;;;;;;;1.70;0.60;;;;;;;27.13;34.17;99413.16;4922319;28;97725;-69
2022/09/29 11:24:46;;;;;;;0.90;0.40;;;;;;;25.79;35.87;99422.22;4939359;28;97731;-70
2022/09/29 11:27:39;;;;;;;0.85;0.30;;;;;;;24.20;37.49;99421.25;4919425;28;98450;-69
2022/09/29 11:30:19;;;;;;;0.88;0.30;;;;;;;25.72;35.80;99416.66;4942214;28;98932;-67
2022/09/29 11:33:04;;;;;;;0.50;0.20;;;;;;;27.55;34.02;99414.84;4929586;28;97999;-67
2022/09/29 11:36:04;;;;;;;0.40;0.20;;;;;;;28.70;33.01;99417.31;4950095;28;97910;-67
2022/09/29 11:38:36;;;;;;;0.68;0.20;;;;;;;29.37;32.16;99414.03;4931594;28;98101;-70
2022/09/29 11:41:32;;;;;;;0.63;0.20;;;;;;;29.79;31.06;99412.56;4949332;28;97873;-68
2022/09/29 11:44:35;;;;;;;0.45;0.10;;;;;;;30.22;31.86;99409.84;4943210;28;98271;-69
2022/09/29 11:47:20;;;;;;;0.80;0.20;;;;;;;30.50;31.41;99407.72;4918311;28;98303;-69
2022/09/29 11:50:45;;;;;;;0.45;0.10;;;;;;;29.89;32.22;99406.06;4934376;28;97957;-69
2022/09/29 11:53:44;;;;;;;0.63;0.10;;;;;;;29.97;32.26;99398.38;4914861;28;97991;-68
2022/09/29 11:56:34;;;;;;;6.45;4.35;;;;;;;27.63;34.66;99408.06;4912073;28;97987;-67
2022/09/29 11:59:50;;;;;;;1.35;0.60;;;;;;;27.71;33.87;99391.41;4929182;28;98659;-69
2022/09/29 12:03:05;;;;;;;1.65;0.30;;;;;;;26.89;34.88;99406.56;4966462;28;99575;-67
2022/09/29 12:05:48;;;;;;;1.90;1.08;;;;;;;26.73;34.20;99401.50;4914908;28;99606;-67
2022/09/29 12:08:45;;;;;;;0.73;0.20;;;;;;;26.39;34.55;99401.97;4940109;28;97565;-68
2022/09/29 12:11:23;;;;;;;1.40;0.50;;;;;;;26.22;33.99;99394.56;4952579;28;97771;-68
2022/09/29 12:14:30;;;;;;;0.30;0.10;;;;;;;25.77;35.10;99405.22;4901245;28;99786;-68
2022/09/29 12:17:03;;;;;;;0.88;0.30;;;;;;;25.44;35.17;99403.66;4935797;28;98199;-67